createdAt,value
2019-04-25T00:00:54.025Z,1.30
2019-04-25T00:01:53.978Z,1.30
2019-04-25T00:02:53.936Z,1.30
2019-04-25T00:03:53.900Z,1.10
2019-04-25T00:04:53.858Z,1.20
2019-04-25T00:05:53.788Z,1.30
2019-04-25T00:06:53.744Z,1.40
2019-04-25T00:07:53.695Z,1.30
2019-04-25T00:08:53.654Z,1.40
2019-04-25T00:09:53.607Z,1.50
2019-04-25T00:10:53.558Z,1.40
2019-04-25T00:11:53.513Z,1.50
2019-04-25T00:12:53.479Z,1.40
2019-04-25T00:13:53.426Z,1.60
2019-04-25T00:16:18.120Z,1.50
2019-04-25T00:17:18.076Z,1.50
2019-04-25T00:18:18.032Z,1.50
2019-04-25T00:19:17.985Z,1.90
2019-04-25T00:20:17.942Z,1.40
2019-04-25T00:21:17.893Z,1.50
2019-04-25T00:22:17.849Z,1.50
2019-04-25T00:23:17.802Z,1.50
2019-04-25T00:24:17.754Z,1.70
2019-04-25T00:25:18.135Z,1.50
2019-04-25T00:26:17.664Z,1.50
2019-04-25T00:27:17.621Z,1.50
2019-04-25T00:28:17.580Z,1.40
2019-04-25T00:31:26.045Z,1.40
2019-04-25T00:32:24.597Z,1.50
2019-04-25T00:33:24.564Z,1.30
2019-04-25T00:34:24.510Z,1.40
2019-04-25T00:35:24.461Z,1.30
2019-04-25T00:36:24.414Z,1.50
2019-04-25T00:37:24.368Z,1.50
2019-04-25T00:38:24.325Z,1.60
2019-04-25T00:39:24.276Z,1.70
2019-04-25T00:40:24.230Z,1.60
2019-04-25T00:41:24.214Z,1.60
2019-04-25T00:42:24.140Z,1.60
2019-04-25T00:43:24.099Z,1.50
2019-04-25T00:44:24.051Z,1.60
2019-04-25T00:45:24.003Z,1.30
2019-04-25T00:46:23.957Z,1.70
2019-04-25T00:48:23.868Z,1.40
2019-04-25T00:49:23.822Z,1.60
2019-04-25T00:50:23.776Z,1.50
2019-04-25T00:51:23.732Z,1.40
2019-04-25T00:52:23.687Z,1.60
2019-04-25T00:53:23.640Z,1.40
2019-04-25T00:54:23.593Z,1.50
2019-04-25T00:55:28.639Z,1.60
2019-04-25T00:56:23.501Z,1.70
2019-04-25T00:57:23.459Z,1.60
2019-04-25T00:58:23.411Z,1.70
2019-04-25T00:59:23.368Z,1.30
2019-04-25T01:00:23.344Z,1.60
2019-04-25T01:01:23.277Z,1.40
2019-04-25T01:02:23.230Z,1.60
2019-04-25T01:03:23.182Z,1.60
2019-04-25T01:04:23.140Z,1.60
2019-04-25T01:05:23.092Z,1.40
2019-04-25T01:06:23.047Z,1.50
2019-04-25T01:07:23.002Z,1.40
2019-04-25T01:08:22.955Z,1.30
2019-04-25T01:09:22.911Z,1.50
2019-04-25T01:10:23.095Z,1.20
2019-04-25T01:11:22.817Z,1.60
2019-04-25T01:12:22.773Z,1.50
2019-04-25T01:13:22.727Z,1.80
2019-04-25T01:14:22.685Z,1.60
2019-04-25T01:15:22.635Z,1.60
2019-04-25T01:16:22.589Z,1.50
2019-04-25T01:17:22.972Z,1.50
2019-04-25T01:18:23.179Z,1.70
2019-04-25T01:19:23.491Z,1.50
2019-04-25T01:20:23.857Z,1.50
2019-04-25T01:21:23.737Z,1.50
2019-04-25T01:22:23.230Z,1.50
2019-04-25T01:23:23.700Z,1.60
2019-04-25T01:24:23.652Z,1.60
2019-04-25T01:25:23.400Z,1.50
2019-04-25T01:26:22.134Z,1.60
2019-04-25T01:27:23.443Z,1.60
2019-04-25T01:28:22.042Z,1.50
2019-04-25T01:30:21.950Z,1.50
2019-04-25T01:31:23.311Z,1.60
2019-04-25T01:32:21.859Z,1.40
2019-04-25T01:33:23.288Z,1.70
2019-04-25T01:34:21.767Z,1.50
2019-04-25T01:35:21.722Z,1.70
2019-04-25T01:36:23.200Z,1.60
2019-04-25T01:37:21.632Z,1.60
2019-04-25T01:38:21.584Z,1.60
2019-04-25T01:39:21.543Z,1.20
2019-04-25T01:40:21.498Z,1.60
2019-04-25T01:41:21.447Z,1.30
2019-04-25T01:42:21.408Z,1.40
2019-04-25T01:43:21.358Z,1.70
2019-04-25T01:44:21.313Z,1.70
2019-04-25T01:45:21.268Z,1.40
2019-04-25T01:46:21.220Z,1.60
2019-04-25T01:47:21.195Z,1.60
2019-04-25T01:48:21.130Z,1.70
2019-04-25T01:49:21.088Z,1.70
2019-04-25T01:50:21.036Z,1.40
2019-04-25T01:51:20.990Z,1.60
2019-04-25T01:52:20.943Z,1.60
2019-04-25T01:53:20.899Z,1.50
2019-04-25T01:54:20.853Z,1.10
2019-04-25T01:55:20.809Z,1.60
2019-04-25T01:56:20.763Z,1.40
2019-04-25T01:57:20.717Z,1.50
2019-04-25T01:58:20.688Z,1.60
2019-04-25T01:59:20.622Z,1.60
2019-04-25T02:00:20.581Z,1.40
2019-04-25T02:01:20.533Z,1.60
2019-04-25T02:02:20.486Z,1.40
2019-04-25T02:03:20.447Z,1.40
2019-04-25T02:04:20.394Z,1.30
2019-04-25T02:05:20.350Z,1.20
2019-04-25T02:06:20.304Z,1.30
2019-04-25T02:07:20.256Z,1.40
2019-04-25T02:08:20.213Z,1.40
2019-04-25T02:09:20.164Z,1.30
2019-04-25T02:10:20.119Z,1.50
2019-04-25T02:11:20.075Z,1.00
2019-04-25T02:12:20.333Z,1.40
2019-04-25T02:13:20.006Z,1.10
2019-04-25T02:14:19.936Z,1.20
2019-04-25T02:15:19.932Z,1.40
2019-04-25T02:16:19.843Z,1.50
2019-04-25T02:17:19.799Z,1.30
2019-04-25T02:18:19.752Z,1.50
2019-04-25T02:19:19.705Z,1.30
2019-04-25T02:20:19.661Z,1.40
2019-04-25T02:21:19.622Z,1.30
2019-04-25T02:22:19.573Z,1.20
2019-04-25T02:23:19.523Z,1.20
2019-04-25T02:24:19.478Z,1.50
2019-04-25T02:25:19.439Z,1.30
2019-04-25T02:26:19.390Z,1.20
2019-04-25T02:27:19.340Z,1.40
2019-04-25T02:28:19.294Z,1.20
2019-04-25T02:29:19.250Z,1.20
2019-04-25T02:30:19.204Z,1.70
2019-04-25T02:31:19.158Z,1.40
2019-04-25T02:32:19.128Z,1.30
2019-04-25T02:33:19.064Z,1.50
2019-04-25T02:34:19.023Z,1.30
2019-04-25T02:35:18.978Z,1.40
2019-04-25T02:36:18.930Z,1.30
2019-04-25T02:37:18.885Z,1.20
2019-04-25T02:38:18.840Z,1.00
2019-04-25T02:39:18.790Z,1.30
2019-04-25T02:40:18.745Z,1.10
2019-04-25T02:41:18.709Z,1.30
2019-04-25T02:42:18.656Z,1.50
2019-04-25T02:43:18.605Z,1.40
2019-04-25T02:44:18.564Z,1.50
2019-04-25T02:45:18.515Z,1.40
2019-04-25T02:46:18.468Z,1.30
2019-04-25T02:47:18.423Z,1.20
2019-04-25T02:48:18.379Z,1.30
2019-04-25T02:49:29.352Z,1.50
2019-04-25T02:50:18.287Z,1.30
2019-04-25T02:51:18.267Z,1.00
2019-04-25T02:52:18.320Z,1.10
2019-04-25T02:53:18.154Z,1.10
2019-04-25T02:54:18.102Z,1.50
2019-04-25T02:55:30.934Z,1.00
2019-04-25T02:56:30.176Z,1.20
2019-04-25T02:57:17.970Z,1.10
2019-04-25T02:58:17.930Z,1.20
2019-04-25T02:59:17.874Z,1.10
2019-04-25T03:00:17.833Z,1.50
2019-04-25T03:01:22.347Z,1.10
2019-04-25T03:02:17.742Z,1.30
2019-04-25T03:03:17.692Z,1.30
2019-04-25T03:04:17.646Z,1.40
2019-04-25T03:05:17.620Z,1.00
2019-04-25T03:06:17.603Z,1.10
2019-04-25T03:07:17.864Z,1.10
2019-04-25T03:08:17.466Z,0.90
2019-04-25T03:09:17.416Z,1.10
2019-04-25T03:11:17.329Z,1.20
2019-04-25T03:12:29.652Z,1.00
2019-04-25T03:13:17.253Z,1.30
2019-04-25T03:14:17.192Z,1.10
2019-04-25T03:15:17.161Z,1.40
2019-04-25T03:16:17.102Z,1.00
2019-04-25T03:18:17.009Z,1.10
2019-04-25T03:19:16.958Z,1.30
2019-04-25T03:20:16.916Z,1.30
2019-04-25T03:21:17.602Z,1.60
2019-04-25T03:22:16.828Z,1.20
2019-04-25T03:23:16.778Z,1.10
2019-04-25T03:24:17.106Z,1.20
2019-04-25T03:25:17.648Z,1.50
2019-04-25T03:26:16.639Z,1.30
2019-04-25T03:27:16.595Z,1.10
2019-04-25T03:28:16.551Z,1.10
2019-04-25T03:29:16.503Z,1.40
2019-04-25T03:30:17.961Z,1.00
2019-04-25T03:31:22.651Z,0.90
2019-04-25T03:32:19.960Z,0.90
2019-04-25T03:33:19.477Z,1.10
2019-04-25T03:34:20.268Z,1.10
2019-04-25T03:35:16.227Z,1.20
2019-04-25T03:36:16.975Z,1.20
2019-04-25T03:37:16.135Z,1.20
2019-04-25T03:38:16.089Z,1.10
2019-04-25T03:39:16.502Z,1.00
2019-04-25T03:40:15.998Z,1.20
2019-04-25T03:41:15.958Z,1.50
2019-04-25T03:42:15.907Z,1.20
2019-04-25T03:43:15.861Z,1.30
2019-04-25T03:44:15.818Z,1.20
2019-04-25T03:45:15.769Z,1.10
2019-04-25T03:46:15.732Z,1.30
2019-04-25T03:47:15.678Z,1.00
2019-04-25T03:48:15.634Z,1.10
2019-04-25T03:49:15.588Z,1.40
2019-04-25T03:50:15.543Z,1.10
2019-04-25T03:51:15.822Z,1.20
2019-04-25T03:52:15.451Z,1.20
2019-04-25T03:53:15.423Z,1.40
2019-04-25T03:54:15.361Z,1.10
2019-04-25T03:55:15.336Z,1.10
2019-04-25T03:56:15.267Z,1.10
2019-04-25T03:57:15.223Z,0.90
2019-04-25T03:58:15.176Z,1.10
2019-04-25T03:59:16.119Z,1.00
2019-04-25T04:00:15.086Z,1.30
2019-04-25T04:01:15.587Z,1.20
2019-04-25T04:02:15.258Z,1.10
2019-04-25T04:03:15.274Z,1.10
2019-04-25T04:04:16.242Z,1.50
2019-04-25T04:05:15.061Z,1.30
2019-04-25T04:06:15.664Z,1.10
2019-04-25T04:07:15.973Z,1.20
2019-04-25T04:08:15.734Z,1.20
2019-04-25T04:09:15.244Z,1.20
2019-04-25T04:10:15.527Z,1.20
2019-04-25T04:11:15.652Z,1.10
2019-04-25T04:12:15.505Z,0.90
2019-04-25T04:13:15.763Z,1.10
2019-04-25T04:14:15.667Z,1.20
2019-04-25T04:15:15.851Z,1.00
2019-04-25T04:16:15.406Z,1.20
2019-04-25T04:17:15.118Z,1.00
2019-04-25T04:18:16.322Z,1.50
2019-04-25T04:19:14.747Z,1.00
2019-04-25T04:20:15.146Z,1.20
2019-04-25T04:21:16.193Z,1.10
2019-04-25T04:22:15.387Z,1.40
2019-04-25T04:23:14.393Z,1.00
2019-04-25T04:24:14.944Z,1.20
2019-04-25T04:25:14.706Z,1.30
2019-04-25T04:26:14.494Z,1.20
2019-04-25T04:27:14.505Z,1.20
2019-04-25T04:28:14.885Z,1.30
2019-04-25T04:29:15.160Z,0.80
2019-04-25T04:30:14.428Z,1.00
2019-04-25T04:31:14.348Z,1.10
2019-04-25T04:32:14.816Z,1.20
2019-04-25T04:33:26.675Z,1.30
2019-04-25T04:34:14.668Z,1.30
2019-04-25T04:35:14.734Z,0.80
2019-04-25T04:36:15.049Z,1.30
2019-04-25T04:37:14.796Z,1.20
2019-04-25T04:38:14.444Z,1.20
2019-04-25T04:39:14.210Z,1.20
2019-04-25T04:40:15.857Z,1.40
2019-04-25T04:41:14.268Z,1.10
2019-04-25T04:42:14.000Z,1.20
2019-04-25T04:43:15.277Z,1.20
2019-04-25T04:44:14.315Z,1.00
2019-04-25T04:45:14.313Z,1.00
2019-04-25T04:46:14.162Z,1.10
2019-04-25T04:47:15.068Z,1.20
2019-04-25T04:48:14.612Z,1.20
2019-04-25T04:49:15.044Z,1.00
2019-04-25T04:50:14.203Z,0.90
2019-04-25T04:51:14.562Z,1.30
2019-04-25T04:52:14.333Z,1.20
2019-04-25T04:53:14.387Z,1.20
2019-04-25T04:54:13.516Z,1.20
2019-04-25T04:55:15.520Z,1.10
2019-04-25T04:56:15.074Z,1.40
2019-04-25T04:57:23.152Z,1.20
2019-04-25T04:58:13.052Z,1.20
2019-04-25T04:59:14.294Z,1.30
2019-04-25T05:00:14.274Z,1.20
2019-04-25T05:01:13.034Z,1.10
2019-04-25T05:02:14.614Z,1.30
2019-04-25T05:03:13.136Z,1.30
2019-04-25T05:04:13.069Z,1.10
2019-04-25T05:05:14.452Z,1.50
2019-04-25T05:06:13.934Z,1.30
2019-04-25T05:07:12.026Z,1.30
2019-04-25T05:08:12.983Z,1.20
2019-04-25T05:09:13.719Z,1.00
2019-04-25T05:10:14.691Z,1.20
2019-04-25T05:11:12.949Z,1.00
2019-04-25T05:12:11.798Z,1.00
2019-04-25T05:13:12.117Z,1.30
2019-04-25T05:14:11.877Z,1.00
2019-04-25T05:15:12.588Z,1.20
2019-04-25T05:16:12.551Z,1.30
2019-04-25T05:17:12.219Z,1.20
2019-04-25T05:18:12.713Z,1.30
2019-04-25T05:19:12.340Z,1.20
2019-04-25T05:20:11.981Z,1.20
2019-04-25T05:21:11.866Z,1.60
2019-04-25T05:22:12.336Z,1.50
2019-04-25T05:23:11.980Z,1.30
2019-04-25T05:24:12.194Z,1.40
2019-04-25T05:25:11.209Z,1.30
2019-04-25T05:26:11.164Z,1.00
2019-04-25T05:27:11.118Z,1.30
2019-04-25T05:28:11.074Z,1.50
2019-04-25T05:29:11.028Z,1.50
2019-04-25T05:30:10.982Z,1.10
2019-04-25T05:31:10.935Z,1.20
2019-04-25T05:32:10.895Z,1.20
2019-04-25T05:33:10.854Z,1.40
2019-04-25T05:34:10.801Z,1.10
2019-04-25T05:35:10.753Z,1.30
2019-04-25T05:36:10.712Z,1.10
2019-04-25T05:37:10.666Z,1.20
2019-04-25T05:38:10.619Z,0.80
2019-04-25T05:39:10.573Z,1.00
2019-04-25T05:40:10.527Z,1.40
2019-04-25T05:41:10.485Z,1.50
2019-04-25T05:42:10.437Z,1.30
2019-04-25T05:43:10.392Z,1.30
2019-04-25T05:44:10.346Z,1.70
2019-04-25T05:45:10.301Z,1.00
2019-04-25T05:46:10.257Z,1.40
2019-04-25T05:47:10.211Z,1.10
2019-04-25T05:48:10.169Z,1.40
2019-04-25T05:49:10.126Z,1.00
2019-04-25T05:50:10.079Z,1.30
2019-04-25T05:51:10.031Z,1.30
2019-04-25T05:52:09.986Z,1.30
2019-04-25T05:53:09.939Z,1.10
2019-04-25T05:54:09.896Z,1.30
2019-04-25T05:55:09.850Z,1.00
2019-04-25T05:56:09.816Z,1.50
2019-04-25T05:57:09.758Z,1.00
2019-04-25T05:58:09.715Z,1.10
2019-04-25T05:59:09.671Z,1.40
2019-04-25T06:00:09.624Z,1.20
2019-04-25T06:01:09.578Z,1.40
2019-04-25T06:02:09.537Z,1.00
2019-04-25T06:03:09.491Z,1.20
2019-04-25T06:04:09.456Z,1.20
2019-04-25T06:05:09.402Z,1.60
2019-04-25T06:06:09.358Z,1.30
2019-04-25T06:07:09.309Z,1.20
2019-04-25T06:08:09.265Z,1.30
2019-04-25T06:09:09.220Z,1.60
2019-04-25T06:10:09.176Z,1.30
2019-04-25T06:11:09.130Z,1.00
2019-04-25T06:12:09.094Z,1.40
2019-04-25T06:13:09.052Z,1.30
2019-04-25T06:14:09.007Z,1.60
2019-04-25T06:15:08.951Z,1.50
2019-04-25T06:16:08.906Z,1.00
2019-04-25T06:17:08.865Z,1.30
2019-04-25T06:18:08.826Z,1.20
2019-04-25T06:19:13.946Z,1.20
2019-04-25T06:20:08.732Z,1.20
2019-04-25T06:21:08.688Z,1.10
2019-04-25T06:22:08.640Z,1.10
2019-04-25T06:23:08.594Z,1.20
2019-04-25T06:24:08.553Z,1.20
2019-04-25T06:25:12.832Z,1.20
2019-04-25T06:26:19.128Z,1.20
2019-04-25T06:27:08.417Z,1.20
2019-04-25T06:28:08.372Z,0.90
2019-04-25T06:29:08.324Z,1.20
2019-04-25T06:30:08.281Z,1.10
2019-04-25T06:31:10.275Z,1.40
2019-04-25T06:32:08.715Z,1.20
2019-04-25T06:33:08.150Z,1.20
2019-04-25T06:34:08.104Z,1.10
2019-04-25T06:35:08.062Z,1.40
2019-04-25T06:36:08.016Z,1.20
2019-04-25T06:37:07.970Z,1.20
2019-04-25T06:38:07.926Z,1.60
2019-04-25T06:39:07.880Z,1.10
2019-04-25T06:40:07.840Z,1.20
2019-04-25T06:41:07.792Z,1.20
2019-04-25T06:42:07.748Z,1.30
2019-04-25T06:43:07.702Z,1.30
2019-04-25T06:44:07.658Z,1.20
2019-04-25T06:45:07.614Z,1.20
2019-04-25T06:46:07.571Z,1.30
2019-04-25T06:47:07.526Z,1.20
2019-04-25T06:48:07.485Z,1.50
2019-04-25T06:49:07.437Z,1.20
2019-04-25T06:50:07.392Z,1.20
2019-04-25T06:51:07.348Z,1.00
2019-04-25T06:52:07.304Z,1.60
2019-04-25T06:53:07.263Z,1.20
2019-04-25T06:54:07.214Z,1.50
2019-04-25T06:55:07.170Z,1.20
2019-04-25T06:56:07.126Z,0.90
2019-04-25T06:57:07.081Z,1.20
2019-04-25T06:58:12.003Z,1.10
2019-04-25T06:59:06.995Z,0.90
2019-04-25T07:00:06.950Z,1.20
2019-04-25T07:01:06.909Z,1.20
2019-04-25T07:02:06.861Z,1.20
2019-04-25T07:03:06.819Z,1.30
2019-04-25T07:05:06.730Z,1.20
2019-04-25T07:06:06.683Z,1.20
2019-04-25T07:07:12.043Z,1.30
2019-04-25T07:08:06.595Z,1.20
2019-04-25T07:09:06.551Z,1.20
2019-04-25T07:10:06.508Z,1.30
2019-04-25T07:11:06.463Z,1.40
2019-04-25T07:12:06.418Z,1.20
2019-04-25T07:13:06.373Z,1.10
2019-04-25T07:14:06.329Z,1.30
2019-04-25T07:15:06.284Z,1.20
2019-04-25T07:16:06.241Z,1.20
2019-04-25T07:17:06.199Z,1.30
2019-04-25T07:18:06.154Z,1.20
2019-04-25T07:19:06.226Z,1.30
2019-04-25T07:20:06.069Z,1.40
2019-04-25T07:21:06.022Z,1.20
2019-04-25T07:22:05.979Z,1.60
2019-04-25T07:23:05.966Z,1.20
2019-04-25T07:24:05.889Z,1.30
2019-04-25T07:25:05.910Z,1.20
2019-04-25T07:26:05.802Z,1.00
2019-04-25T07:27:05.768Z,1.10
2019-04-25T07:28:05.716Z,1.10
2019-04-25T07:29:05.675Z,1.50
2019-04-25T07:30:05.626Z,1.40
2019-04-25T07:31:05.582Z,1.10
2019-04-25T07:32:06.011Z,1.50
2019-04-25T07:33:05.499Z,1.50
2019-04-25T07:34:05.451Z,1.30
2019-04-25T07:35:05.420Z,1.20
2019-04-25T07:36:05.365Z,1.30
2019-04-25T07:37:05.332Z,1.20
2019-04-25T07:38:05.276Z,1.40
2019-04-25T07:39:10.359Z,1.10
2019-04-25T07:40:05.186Z,1.40
2019-04-25T07:41:05.142Z,1.40
2019-04-25T07:42:05.102Z,1.30
2019-04-25T07:43:05.057Z,1.20
2019-04-25T07:44:05.009Z,1.20
2019-04-25T07:45:04.992Z,1.20
2019-04-25T07:46:04.923Z,1.40
2019-04-25T07:47:04.881Z,1.20
2019-04-25T07:48:04.838Z,1.20
2019-04-25T07:49:04.791Z,1.20
2019-04-25T07:50:04.747Z,1.30
2019-04-25T07:51:04.704Z,1.20
2019-04-25T07:52:04.660Z,1.20
2019-04-25T07:53:05.700Z,1.10
2019-04-25T07:54:04.627Z,1.00
2019-04-25T07:55:04.527Z,1.20
2019-04-25T07:56:04.482Z,1.20
2019-04-25T07:57:04.442Z,1.10
2019-04-25T07:58:04.397Z,1.10
2019-04-25T07:59:04.352Z,1.20
2019-04-25T08:00:04.787Z,1.10
2019-04-25T08:01:04.318Z,1.20
2019-04-25T08:02:04.224Z,1.20
2019-04-25T08:03:04.178Z,1.20
2019-04-25T08:04:04.133Z,1.50
2019-04-25T08:06:05.229Z,1.40
2019-04-25T08:07:04.189Z,0.90
2019-04-25T08:08:03.956Z,1.20
2019-04-25T08:09:04.140Z,1.00
2019-04-25T08:10:04.104Z,0.90
2019-04-25T08:11:04.150Z,1.10
2019-04-25T08:12:03.789Z,1.40
2019-04-25T08:13:04.970Z,1.10
2019-04-25T08:14:03.698Z,1.40
2019-04-25T08:15:04.078Z,1.00
2019-04-25T08:16:03.610Z,1.10
2019-04-25T08:17:03.740Z,1.30
2019-04-25T08:18:04.075Z,1.10
2019-04-25T08:19:04.083Z,1.00
2019-04-25T08:20:03.972Z,1.00
2019-04-25T08:21:03.388Z,1.20
2019-04-25T08:22:03.688Z,1.10
2019-04-25T08:23:04.227Z,1.20
2019-04-25T08:24:04.663Z,1.10
2019-04-25T08:25:03.656Z,1.20
2019-04-25T08:26:04.175Z,1.00
2019-04-25T08:27:03.386Z,1.10
2019-04-25T08:28:03.807Z,0.80
2019-04-25T08:29:03.628Z,1.00
2019-04-25T08:30:04.360Z,1.20
2019-04-25T08:31:03.584Z,1.20
2019-04-25T08:32:04.575Z,1.10
2019-04-25T08:34:03.623Z,1.00
2019-04-25T08:35:03.828Z,1.40
2019-04-25T08:36:06.576Z,1.50
2019-04-25T08:37:04.064Z,1.90
2019-04-25T08:38:03.436Z,1.90
2019-04-25T08:39:03.376Z,1.10
2019-04-25T08:40:03.993Z,1.60
2019-04-25T08:41:04.076Z,1.40
2019-04-25T08:42:03.458Z,1.20
2019-04-25T08:43:03.560Z,1.50
2019-04-25T08:44:04.002Z,1.40
2019-04-25T08:45:03.697Z,1.40
2019-04-25T08:46:04.099Z,1.20
2019-04-25T08:47:02.259Z,1.40
2019-04-25T08:48:03.637Z,1.20
2019-04-25T08:49:04.606Z,1.30
2019-04-25T08:50:03.619Z,1.10
2019-04-25T08:51:03.686Z,1.10
2019-04-25T08:52:02.045Z,1.20
2019-04-25T08:53:01.999Z,1.10
2019-04-25T08:54:03.736Z,0.60
2019-04-25T08:55:01.923Z,0.90
2019-04-25T08:56:03.735Z,1.50
2019-04-25T08:57:01.824Z,1.20
2019-04-25T08:58:01.781Z,1.10
2019-04-25T08:59:06.165Z,1.50
2019-04-25T09:00:01.696Z,1.30
2019-04-25T09:01:01.654Z,1.20
2019-04-25T09:02:01.617Z,1.40
2019-04-25T09:03:01.563Z,1.40
2019-04-25T09:04:03.578Z,0.90
2019-04-25T09:05:01.486Z,1.20
2019-04-25T09:06:01.922Z,1.10
2019-04-25T09:07:01.390Z,1.20
2019-04-25T09:08:01.355Z,1.10
2019-04-25T09:09:01.303Z,1.30
2019-04-25T09:10:01.263Z,0.90
2019-04-25T09:11:01.220Z,1.30
2019-04-25T09:12:01.175Z,0.70
2019-04-25T09:13:01.133Z,1.00
2019-04-25T09:14:01.089Z,1.30
2019-04-25T09:15:01.047Z,1.10
2019-04-25T09:16:01.002Z,1.40
2019-04-25T09:17:00.958Z,1.20
2019-04-25T09:18:00.919Z,1.30
2019-04-25T09:19:00.876Z,1.10
2019-04-25T09:20:00.834Z,0.80
2019-04-25T09:21:00.788Z,1.50
2019-04-25T09:22:00.744Z,1.10
2019-04-25T09:23:00.700Z,1.10
2019-04-25T09:24:00.659Z,1.20
2019-04-25T09:25:00.616Z,1.30
2019-04-25T09:26:00.571Z,1.30
2019-04-25T09:27:00.527Z,1.00
2019-04-25T09:28:00.487Z,1.10
2019-04-25T09:29:00.444Z,1.10
2019-04-25T09:30:00.400Z,1.40
2019-04-25T09:31:00.360Z,1.00
2019-04-25T09:32:00.311Z,1.30
2019-04-25T09:33:00.272Z,1.00
2019-04-25T09:34:00.231Z,1.00
2019-04-25T09:35:00.189Z,1.20
2019-04-25T09:36:00.144Z,1.10
2019-04-25T09:37:00.099Z,1.00
2019-04-25T09:38:00.058Z,1.10
2019-04-25T09:39:00.014Z,1.20
2019-04-25T09:39:59.971Z,1.20
2019-04-25T09:40:59.927Z,1.40
2019-04-25T09:41:59.890Z,1.30
2019-04-25T09:42:59.903Z,1.40
2019-04-25T09:43:59.800Z,1.00
2019-04-25T09:44:59.760Z,1.20
2019-04-25T09:45:59.715Z,1.20
2019-04-25T09:46:59.675Z,1.20
2019-04-25T09:47:59.636Z,1.10
2019-04-25T09:48:59.594Z,1.00
2019-04-25T09:49:59.547Z,1.10
2019-04-25T09:50:59.506Z,1.10
2019-04-25T09:51:59.486Z,1.10
2019-04-25T09:52:59.444Z,0.90
2019-04-25T09:53:59.395Z,1.10
2019-04-25T09:54:59.350Z,0.90
2019-04-25T09:55:59.298Z,1.10
2019-04-25T09:56:59.269Z,0.80
2019-04-25T09:57:59.208Z,0.90
2019-04-25T09:58:59.166Z,1.10
2019-04-25T09:59:59.126Z,1.00
2019-04-25T10:00:59.086Z,1.00
2019-04-25T10:01:59.051Z,1.20
2019-04-25T10:02:58.998Z,0.90
2019-04-25T10:03:58.956Z,1.00
2019-04-25T10:04:58.914Z,1.30
2019-04-25T10:05:58.873Z,1.30
2019-04-25T10:06:58.850Z,1.20
2019-04-25T10:07:58.791Z,0.90
2019-04-25T10:08:58.749Z,1.10
2019-04-25T10:09:58.705Z,1.20
2019-04-25T10:10:58.665Z,1.00
2019-04-25T10:11:58.620Z,0.90
2019-04-25T10:12:58.579Z,1.00
2019-04-25T10:13:58.540Z,0.90
2019-04-25T10:17:05.624Z,1.10
2019-04-25T10:18:05.578Z,1.10
2019-04-25T10:19:05.537Z,0.90
2019-04-25T10:20:05.495Z,0.90
2019-04-25T10:21:05.452Z,0.90
2019-04-25T10:22:05.416Z,1.00
2019-04-25T10:23:05.369Z,0.90
2019-04-25T10:24:05.330Z,0.60
2019-04-25T10:25:05.287Z,1.10
2019-04-25T10:26:05.247Z,1.10
2019-04-25T10:27:05.207Z,1.20
2019-04-25T10:28:05.165Z,0.80
2019-04-25T10:29:05.123Z,0.90
2019-04-25T10:30:16.820Z,1.00
2019-04-25T10:31:05.038Z,0.90
2019-04-25T10:32:05.004Z,1.00
2019-04-25T10:33:04.954Z,0.90
2019-04-25T10:34:04.918Z,0.90
2019-04-25T10:35:04.869Z,1.10
2019-04-25T10:36:04.828Z,1.10
2019-04-25T10:37:04.788Z,0.90
2019-04-25T10:38:04.747Z,0.80
2019-04-25T10:39:10.637Z,0.80
2019-04-25T10:40:04.663Z,0.80
2019-04-25T10:41:04.621Z,0.90
2019-04-25T10:42:04.582Z,0.70
2019-04-25T10:43:04.537Z,1.00
2019-04-25T10:44:04.495Z,1.00
2019-04-25T10:45:04.452Z,0.90
2019-04-25T10:46:05.355Z,1.20
2019-04-25T10:47:04.373Z,0.90
2019-04-25T10:48:04.344Z,1.20
2019-04-25T10:49:04.510Z,0.90
2019-04-25T10:50:04.245Z,1.00
2019-04-25T10:51:04.285Z,0.90
2019-04-25T10:52:04.162Z,0.90
2019-04-25T10:53:04.130Z,0.90
2019-04-25T10:54:04.242Z,0.90
2019-04-25T10:55:04.264Z,1.00
2019-04-25T10:56:06.006Z,0.90
2019-04-25T10:57:06.412Z,0.90
2019-04-25T10:58:03.992Z,0.90
2019-04-25T10:59:04.267Z,0.90
2019-04-25T11:00:09.031Z,0.90
2019-04-25T11:01:03.783Z,0.80
2019-04-25T11:02:04.059Z,0.90
2019-04-25T11:03:03.957Z,1.00
2019-04-25T11:04:04.708Z,1.00
2019-04-25T11:05:03.624Z,0.80
2019-04-25T11:06:04.017Z,0.90
2019-04-25T11:07:03.792Z,1.10
2019-04-25T11:08:04.319Z,1.00
2019-04-25T11:09:03.570Z,1.40
2019-04-25T11:10:03.658Z,1.10
2019-04-25T11:11:03.760Z,1.00
2019-04-25T11:12:03.332Z,1.20
2019-04-25T11:13:04.055Z,1.10
2019-04-25T11:14:03.428Z,1.00
2019-04-25T11:15:03.946Z,1.10
2019-04-25T11:16:03.621Z,0.80
2019-04-25T11:17:03.122Z,0.90
2019-04-25T11:18:04.183Z,1.20
2019-04-25T11:19:03.040Z,1.10
2019-04-25T11:20:03.668Z,1.10
2019-04-25T11:21:04.297Z,1.20
2019-04-25T11:22:03.998Z,1.00
2019-04-25T11:23:03.740Z,1.10
2019-04-25T11:24:04.063Z,0.90
2019-04-25T11:25:02.793Z,1.00
2019-04-25T11:26:03.840Z,1.00
2019-04-25T11:27:04.254Z,0.90
2019-04-25T11:28:03.906Z,1.10
2019-04-25T11:29:02.637Z,1.20
2019-04-25T11:30:09.241Z,1.10
2019-04-25T11:31:04.159Z,1.00
2019-04-25T11:32:02.509Z,0.90
2019-04-25T11:33:03.606Z,0.90
2019-04-25T11:34:03.598Z,1.20
2019-04-25T11:35:03.528Z,1.00
2019-04-25T11:36:04.095Z,0.90
2019-04-25T11:37:03.702Z,0.80
2019-04-25T11:38:03.488Z,1.00
2019-04-25T11:39:02.274Z,1.10
2019-04-25T11:40:03.907Z,0.80
2019-04-25T11:41:03.857Z,0.90
2019-04-25T11:42:02.127Z,0.90
2019-04-25T11:43:02.063Z,0.90
2019-04-25T11:44:03.492Z,0.90
2019-04-25T11:45:03.021Z,0.80
2019-04-25T11:46:03.399Z,1.00
2019-04-25T11:47:03.819Z,0.90
2019-04-25T11:48:02.010Z,0.90
2019-04-25T11:49:01.824Z,1.00
2019-04-25T11:50:01.844Z,0.90
2019-04-25T11:51:03.567Z,1.10
2019-04-25T11:52:03.103Z,1.00
2019-04-25T11:53:01.657Z,1.00
2019-04-25T11:54:03.243Z,1.00
2019-04-25T11:55:01.608Z,1.00
2019-04-25T11:56:01.534Z,0.80
2019-04-25T11:57:01.496Z,1.00
2019-04-25T11:58:01.462Z,0.90
2019-04-25T11:59:01.414Z,0.90
2019-04-25T12:00:01.371Z,0.90
2019-04-25T12:01:01.333Z,0.90
2019-04-25T12:02:01.291Z,0.80
2019-04-25T12:03:01.254Z,0.80
2019-04-25T12:04:01.208Z,0.80
2019-04-25T12:05:01.164Z,0.70
2019-04-25T12:06:01.133Z,0.80
2019-04-25T12:07:03.823Z,0.90
2019-04-25T12:08:01.043Z,1.00
2019-04-25T12:09:01.004Z,1.00
2019-04-25T12:10:00.974Z,0.90
2019-04-25T12:11:00.922Z,0.70
2019-04-25T12:12:00.884Z,0.80
2019-04-25T12:13:01.182Z,0.70
2019-04-25T12:14:00.804Z,0.90
2019-04-25T12:15:00.763Z,0.70
2019-04-25T12:16:00.725Z,1.00
2019-04-25T12:17:00.683Z,0.80
2019-04-25T12:18:00.646Z,0.70
2019-04-25T12:19:00.608Z,0.70
2019-04-25T12:20:00.567Z,0.80
2019-04-25T12:21:00.558Z,0.90
2019-04-25T12:22:00.499Z,0.80
2019-04-25T12:23:08.493Z,0.70
2019-04-25T12:24:01.783Z,0.90
2019-04-25T12:25:00.376Z,0.80
2019-04-25T12:26:00.342Z,0.60
2019-04-25T12:27:00.301Z,0.80
2019-04-25T12:28:00.309Z,0.80
2019-04-25T12:29:00.228Z,1.10
2019-04-25T12:30:00.195Z,1.00
2019-04-25T12:31:00.150Z,0.90
2019-04-25T12:32:00.116Z,0.80
2019-04-25T12:33:00.078Z,0.80
2019-04-25T12:34:00.044Z,0.80
2019-04-25T12:35:00.003Z,0.60
2019-04-25T12:35:59.966Z,0.80
2019-04-25T12:36:59.953Z,0.60
2019-04-25T12:37:59.893Z,0.80
2019-04-25T12:38:59.858Z,0.80
2019-04-25T12:39:59.827Z,0.80
2019-04-25T12:40:59.786Z,0.80
2019-04-25T12:41:59.751Z,0.80
2019-04-25T12:42:59.714Z,0.80
2019-04-25T12:43:59.677Z,0.90
2019-04-25T12:44:59.643Z,0.80
2019-04-25T12:45:59.615Z,0.90
2019-04-25T12:46:59.574Z,0.60
2019-04-25T12:47:59.536Z,0.60
2019-04-25T12:48:59.499Z,0.70
2019-04-25T12:49:59.464Z,0.60
2019-04-25T12:50:59.427Z,0.70
2019-04-25T12:51:59.393Z,0.70
2019-04-25T12:52:59.355Z,0.60
2019-04-25T12:53:59.321Z,0.70
2019-04-25T12:54:59.287Z,0.80
2019-04-25T12:55:59.249Z,0.90
2019-04-25T12:56:59.891Z,0.80
2019-04-25T12:57:59.181Z,1.00
2019-04-25T12:58:59.145Z,0.70
2019-04-25T12:59:59.107Z,0.50
2019-04-25T13:01:00.102Z,0.80
2019-04-25T13:02:00.120Z,0.70
2019-04-25T13:02:59.005Z,0.90
2019-04-25T13:03:58.971Z,0.80
2019-04-25T13:04:58.933Z,0.70
2019-04-25T13:05:58.895Z,0.70
2019-04-25T13:06:58.861Z,0.70
2019-04-25T13:07:59.928Z,0.50
2019-04-25T13:08:59.480Z,0.60
2019-04-25T13:09:58.758Z,0.80
2019-04-25T13:11:08.011Z,0.70
2019-04-25T13:11:58.687Z,0.70
2019-04-25T13:12:58.654Z,0.80
2019-04-25T13:13:58.619Z,0.80
2019-04-25T13:14:58.583Z,0.80
2019-04-25T13:15:58.550Z,0.70
2019-04-25T13:16:58.516Z,0.80
2019-04-25T13:17:58.480Z,0.80
2019-04-25T13:19:09.361Z,0.90
2019-04-25T13:19:59.481Z,0.80
2019-04-25T13:20:58.482Z,0.70
2019-04-25T13:21:58.346Z,0.90
2019-04-25T13:22:58.474Z,0.70
2019-04-25T13:23:58.279Z,0.60
2019-04-25T13:24:58.880Z,0.60
2019-04-25T13:25:58.207Z,0.90
2019-04-25T13:26:58.580Z,0.70
2019-04-25T13:27:58.540Z,0.80
2019-04-25T13:28:59.018Z,0.70
2019-04-25T13:29:58.832Z,1.00
2019-04-25T13:31:04.146Z,0.70